createdAt,value
2022-08-07T00:01:43.895Z,43.47
2022-08-07T00:06:32.932Z,41.42
2022-08-07T00:11:39.967Z,40.75
2022-08-07T00:16:56.883Z,39.17
2022-08-07T00:22:01.901Z,37.50
2022-08-07T00:32:14.270Z,32.92
2022-08-07T00:37:17.923Z,39.20
2022-08-07T00:42:28.951Z,37.47
2022-08-07T00:48:09.587Z,38.45
2022-08-07T00:52:55.362Z,37.50
2022-08-07T00:57:58.274Z,42.05
2022-08-07T01:03:01.400Z,41.40
2022-08-07T01:08:04.340Z,40.17
2022-08-07T01:13:07.191Z,41.10
2022-08-07T01:18:09.992Z,44.83
2022-08-07T01:23:15.783Z,38.70
2022-08-07T01:28:19.556Z,43.67
2022-08-07T01:33:25.429Z,44.67
2022-08-07T01:38:48.834Z,39.60
2022-08-07T01:43:58.744Z,37.30
2022-08-07T01:49:02.466Z,35.92
2022-08-07T01:54:19.208Z,40.17
2022-08-07T01:59:57.664Z,37.28
2022-08-07T02:05:16.126Z,37.38
2022-08-07T02:10:37.299Z,40.50
2022-08-07T02:16:08.421Z,38.13
2022-08-07T02:21:17.768Z,57.05
2022-08-07T02:26:33.937Z,41.53
2022-08-07T02:31:39.085Z,45.95
2022-08-07T02:36:45.120Z,41.45
2022-08-07T02:41:54.905Z,43.55
2022-08-07T02:47:01.102Z,42.63
2022-08-07T02:52:10.627Z,46.53
2022-08-07T02:57:20.136Z,44.67
2022-08-07T03:02:25.809Z,42.55
2022-08-07T03:07:43.114Z,44.03
2022-08-07T03:12:55.657Z,49.65
2022-08-07T03:17:59.366Z,55.45
2022-08-07T03:23:03.941Z,54.23
2022-08-07T03:28:37.980Z,50.25
2022-08-07T03:33:40.094Z,58.38
2022-08-07T03:38:47.194Z,54.17
2022-08-07T03:43:57.300Z,58.03
2022-08-07T03:49:05.396Z,53.03
2022-08-07T03:54:36.096Z,50.20
2022-08-07T03:59:46.511Z,56.17
2022-08-07T04:05:02.763Z,60.17
2022-08-07T04:10:06.214Z,53.35
2022-08-07T04:15:19.678Z,59.42
2022-08-07T04:20:27.544Z,55.28
2022-08-07T04:25:31.583Z,53.20
2022-08-07T04:30:55.613Z,54.03
2022-08-07T04:36:09.250Z,53.47
2022-08-07T04:41:18.200Z,56.75
2022-08-07T04:46:59.214Z,54.67
2022-08-07T04:52:26.510Z,48.33
2022-08-07T04:58:31.447Z,49.10
2022-08-07T05:04:06.647Z,48.60
2022-08-07T05:09:28.053Z,52.60
2022-08-07T05:14:59.237Z,57.65
2022-08-07T05:20:09.946Z,53.63
2022-08-07T05:25:36.519Z,53.67
2022-08-07T05:30:41.797Z,53.78
2022-08-07T05:35:46.230Z,55.45
2022-08-07T05:40:51.906Z,57.88
2022-08-07T05:45:58.449Z,56.42
2022-08-07T05:51:03.411Z,60.73
2022-08-07T05:56:13.129Z,59.72
2022-08-07T06:01:25.932Z,61.67
2022-08-07T06:06:32.501Z,54.03
2022-08-07T06:11:39.846Z,55.05
2022-08-07T06:16:50.674Z,57.53
2022-08-07T06:22:15.375Z,59.55
2022-08-07T06:28:00.171Z,58.70
2022-08-07T06:32:50.819Z,59.33
2022-08-07T06:37:54.853Z,60.17
2022-08-07T06:42:59.144Z,58.33
2022-08-07T06:48:15.324Z,60.78
2022-08-07T06:54:11.835Z,58.03
2022-08-07T07:00:14.774Z,90.80
2022-08-07T07:04:32.435Z,57.38
2022-08-07T07:09:36.278Z,57.63
2022-08-07T07:14:51.565Z,61.75
2022-08-07T07:19:59.176Z,59.85
2022-08-07T07:26:31.183Z,52.67
2022-08-07T07:30:38.745Z,57.30
2022-08-07T07:36:04.555Z,54.72
2022-08-07T07:41:09.646Z,56.33
2022-08-07T07:46:40.606Z,52.15
2022-08-07T07:51:58.406Z,57.95
2022-08-07T07:57:01.441Z,56.10
2022-08-07T08:02:10.818Z,54.35
2022-08-07T08:07:14.284Z,54.20
2022-08-07T08:12:51.580Z,57.17
2022-08-07T08:17:57.484Z,52.33
2022-08-07T08:23:20.656Z,48.90
2022-08-07T08:28:38.490Z,49.17
2022-08-07T08:33:43.823Z,47.88
2022-08-07T08:38:53.159Z,45.35
2022-08-07T08:44:03.694Z,47.28
2022-08-07T08:49:33.445Z,44.53
2022-08-07T08:55:12.340Z,53.85
2022-08-07T09:05:39.272Z,44.30
2022-08-07T09:10:45.292Z,46.92
2022-08-07T09:16:26.575Z,44.63
2022-08-07T09:22:10.294Z,45.22
2022-08-07T09:27:20.661Z,48.42
2022-08-07T09:32:58.466Z,42.28
2022-08-07T09:38:40.816Z,48.40
2022-08-07T09:44:06.585Z,45.10
2022-08-07T09:50:02.147Z,46.03
2022-08-07T09:55:36.916Z,50.40
2022-08-07T10:00:47.102Z,44.72
2022-08-07T10:06:12.018Z,42.38
2022-08-07T10:12:02.432Z,41.70
2022-08-07T10:17:33.731Z,43.53
2022-08-07T10:24:05.312Z,40.17
2022-08-07T10:29:04.423Z,40.70
2022-08-07T10:34:45.144Z,43.60
2022-08-07T10:40:08.847Z,44.20
2022-08-07T10:45:44.541Z,39.95
2022-08-07T10:50:52.801Z,43.03
2022-08-07T10:56:30.962Z,39.75
2022-08-07T11:02:12.402Z,41.45
2022-08-07T11:08:20.983Z,44.95
2022-08-07T11:14:46.407Z,45.53
2022-08-07T11:19:39.070Z,43.05
2022-08-07T11:25:00.226Z,42.08
2022-08-07T11:30:18.422Z,40.17
2022-08-07T11:35:26.972Z,40.05
2022-08-07T11:40:56.792Z,36.17
2022-08-07T11:46:28.150Z,34.80
2022-08-07T11:51:57.911Z,36.17
2022-08-07T11:58:00.467Z,37.85
2022-08-07T12:03:44.588Z,40.00
2022-08-07T12:08:54.365Z,38.38
2022-08-07T12:14:21.998Z,37.47
2022-08-07T12:26:05.376Z,38.47
2022-08-07T12:30:57.376Z,37.43
2022-08-07T12:36:15.844Z,38.33
2022-08-07T12:41:20.315Z,35.20
2022-08-07T12:47:21.762Z,36.53
2022-08-07T12:52:35.706Z,39.58
2022-08-07T12:58:01.445Z,43.15
2022-08-07T13:03:27.120Z,37.77
2022-08-07T13:09:33.416Z,35.15
2022-08-07T13:14:51.283Z,34.78
2022-08-07T13:20:10.469Z,36.22
2022-08-07T13:25:29.571Z,40.90
2022-08-07T13:30:40.307Z,51.92
2022-08-07T13:36:17.816Z,55.22
2022-08-07T13:41:32.366Z,56.30
2022-08-07T13:46:49.529Z,56.17
2022-08-07T13:52:19.048Z,55.53
2022-08-07T13:57:24.086Z,58.63
2022-08-07T14:02:33.482Z,57.05
2022-08-07T14:08:00.028Z,58.65
2022-08-07T14:13:05.679Z,53.58
2022-08-07T14:18:28.703Z,63.78
2022-08-07T14:24:00.262Z,64.93
2022-08-07T14:34:30.631Z,60.65
2022-08-07T14:40:17.170Z,58.13
2022-08-07T14:45:20.868Z,55.28
2022-08-07T14:50:31.607Z,58.00
2022-08-07T15:00:59.843Z,50.25
2022-08-07T15:06:25.644Z,47.97
2022-08-07T15:17:00.451Z,47.22
2022-08-07T15:22:07.865Z,45.40
2022-08-07T15:33:01.368Z,46.65
2022-08-07T15:38:29.775Z,46.47
2022-08-07T15:43:53.175Z,52.28
2022-08-07T15:49:04.006Z,55.40
2022-08-07T15:54:19.959Z,49.53
2022-08-07T15:59:37.973Z,41.80
2022-08-07T16:04:43.992Z,53.83
2022-08-07T16:09:54.741Z,51.28
2022-08-07T16:15:57.233Z,57.53
2022-08-07T16:22:01.242Z,52.67
2022-08-07T16:26:30.938Z,48.00
2022-08-07T16:31:58.272Z,45.78
2022-08-07T16:38:03.023Z,42.42
2022-08-07T16:43:03.833Z,43.35
2022-08-07T16:49:10.491Z,48.42
2022-08-07T16:54:32.664Z,41.05
2022-08-07T16:59:52.696Z,46.22
2022-08-07T17:06:01.997Z,41.35
2022-08-07T17:10:54.553Z,44.80
2022-08-07T17:16:18.095Z,43.38
2022-08-07T17:21:51.255Z,42.65
2022-08-07T17:27:09.421Z,35.53
2022-08-07T17:32:35.698Z,39.92
2022-08-07T17:38:09.296Z,42.40
2022-08-07T17:44:01.370Z,38.70
2022-08-07T17:49:02.604Z,36.22
2022-08-07T17:54:29.695Z,43.78
2022-08-07T17:59:45.623Z,40.67
2022-08-07T18:05:20.699Z,42.75
2022-08-07T18:12:06.329Z,38.85
2022-08-07T18:16:30.788Z,45.03
2022-08-07T18:22:00.472Z,40.20
2022-08-07T18:27:40.339Z,35.28
2022-08-07T18:33:20.508Z,35.90
2022-08-07T18:38:59.166Z,43.63
2022-08-07T18:44:10.793Z,49.50
2022-08-07T18:50:32.560Z,54.10
2022-08-07T18:55:40.746Z,49.47
2022-08-07T19:00:54.445Z,52.70
2022-08-07T19:06:21.861Z,55.33
2022-08-07T19:11:39.693Z,53.42
2022-08-07T19:17:55.909Z,51.20
2022-08-07T19:22:38.424Z,54.42
2022-08-07T19:28:30.911Z,56.67
2022-08-07T19:33:15.341Z,50.35
2022-08-07T19:38:22.595Z,54.45
2022-08-07T19:43:44.236Z,52.28
2022-08-07T19:48:59.600Z,50.90
2022-08-07T19:54:32.176Z,49.58
2022-08-07T20:04:48.981Z,37.08
2022-08-07T20:10:35.427Z,32.92
2022-08-07T20:15:22.064Z,44.20
2022-08-07T20:20:27.089Z,34.03
2022-08-07T20:25:33.549Z,44.67
2022-08-07T20:30:46.815Z,37.05
2022-08-07T20:35:51.908Z,38.90
2022-08-07T20:41:03.782Z,37.78
2022-08-07T20:46:28.721Z,42.10
2022-08-07T20:51:35.901Z,45.15
2022-08-07T20:56:46.222Z,44.55
2022-08-07T21:01:55.113Z,43.80
2022-08-07T21:07:04.485Z,42.17
2022-08-07T21:12:28.661Z,40.95
2022-08-07T21:18:03.823Z,42.87
2022-08-07T21:23:08.169Z,41.28
2022-08-07T21:28:49.759Z,40.38
2022-08-07T21:34:21.922Z,36.38
2022-08-07T21:39:51.898Z,36.70
2022-08-07T21:46:08.986Z,36.88
2022-08-07T21:50:39.452Z,37.85
2022-08-07T21:56:16.752Z,36.38
2022-08-07T22:02:10.210Z,38.72
2022-08-07T22:07:22.853Z,41.30
2022-08-07T22:12:54.573Z,36.72
2022-08-07T22:18:29.444Z,38.92
2022-08-07T22:23:52.070Z,35.60
2022-08-07T22:29:03.834Z,34.28
2022-08-07T22:34:41.171Z,30.88
2022-08-07T22:40:05.223Z,31.80
2022-08-07T22:45:21.753Z,29.88
2022-08-07T22:50:50.308Z,33.58
2022-08-07T22:56:08.907Z,34.53
2022-08-07T23:01:23.909Z,35.15
2022-08-07T23:06:49.974Z,33.65
2022-08-07T23:12:32.703Z,34.97
2022-08-07T23:17:54.964Z,34.22
2022-08-07T23:24:05.608Z,30.10
2022-08-07T23:29:43.954Z,35.72
2022-08-07T23:35:04.644Z,32.47
2022-08-07T23:40:31.369Z,31.58
2022-08-07T23:46:03.099Z,29.02
2022-08-07T23:52:59.709Z,31.67
2022-08-07T23:57:34.860Z,33.15
